createdAt,value
2023-12-09T00:02:13.567Z,100738.09
2023-12-09T00:05:17.349Z,100739.06
2023-12-09T00:08:20.210Z,100734.22
2023-12-09T00:11:23.113Z,100740.88
2023-12-09T00:14:28.897Z,100741.13
2023-12-09T00:17:32.388Z,100733.81
2023-12-09T00:20:35.485Z,100729.94
2023-12-09T00:23:47.183Z,100725.56
2023-12-09T00:26:51.578Z,100734.19
2023-12-09T00:29:55.722Z,100730.31
2023-12-09T00:32:58.630Z,100737.91
2023-12-09T00:36:01.484Z,100727.75
2023-12-09T00:39:07.433Z,100734.78
2023-12-09T00:42:12.023Z,100736.53
2023-12-09T00:45:15.471Z,100735.03
2023-12-09T00:48:18.620Z,100729.97
2023-12-09T00:51:21.454Z,100741.94
2023-12-09T00:54:26.868Z,100741.31
2023-12-09T00:57:29.698Z,100745.69
2023-12-09T01:00:32.575Z,100751.91
2023-12-09T01:03:35.656Z,100751.91
2023-12-09T01:06:38.484Z,100751.12
2023-12-09T01:09:41.269Z,100753.72
2023-12-09T01:12:45.649Z,100738.47
2023-12-09T01:15:48.414Z,100734.16
2023-12-09T01:18:51.280Z,100748.91
2023-12-09T01:21:54.366Z,100741.41
2023-12-09T01:24:57.140Z,100739.66
2023-12-09T01:27:59.909Z,100741.34
2023-12-09T01:31:02.590Z,100735.06
2023-12-09T01:34:06.093Z,100732.69
2023-12-09T01:37:09.025Z,100728.66
2023-12-09T01:40:15.779Z,100740.44
2023-12-09T01:43:18.562Z,100737.78
2023-12-09T01:46:22.054Z,100724.97
2023-12-09T01:49:28.400Z,100740.91
2023-12-09T01:52:32.540Z,100736.66
2023-12-09T01:55:35.383Z,100736.44
2023-12-09T01:58:38.608Z,100747.66
2023-12-09T02:01:41.361Z,100749.53
2023-12-09T02:04:44.207Z,100735.28
2023-12-09T02:07:47.650Z,100747.25
2023-12-09T02:11:06.649Z,100747.09
2023-12-09T02:14:18.583Z,100750.50
2023-12-09T02:17:23.959Z,100738.06
2023-12-09T02:20:27.786Z,100743.13
2023-12-09T02:23:45.795Z,100750.09
2023-12-09T02:26:49.222Z,100746.41
2023-12-09T02:30:01.135Z,100745.78
2023-12-09T02:33:08.998Z,100755.03
2023-12-09T02:36:14.458Z,100749.06
2023-12-09T02:39:19.281Z,100748.16
2023-12-09T02:42:22.194Z,100747.38
2023-12-09T02:45:25.068Z,100751.63
2023-12-09T02:48:28.075Z,100743.91
2023-12-09T02:51:30.969Z,100746.63
2023-12-09T02:54:33.785Z,100745.78
2023-12-09T02:57:37.834Z,100750.88
2023-12-09T03:00:40.954Z,100755.87
2023-12-09T03:03:43.944Z,100753.22
2023-12-09T03:06:49.506Z,100753.22
2023-12-09T03:09:52.307Z,100755.25
2023-12-09T03:12:55.049Z,100750.88
2023-12-09T03:15:57.946Z,100751.06
2023-12-09T03:19:00.779Z,100764.50
2023-12-09T03:22:04.454Z,100760.13
2023-12-09T03:25:07.480Z,100765.13
2023-12-09T03:28:10.287Z,100772.78
2023-12-09T03:31:14.789Z,100769.31
2023-12-09T03:34:17.881Z,100769.25
2023-12-09T03:37:20.822Z,100774.75
2023-12-09T03:40:23.612Z,100775.56
2023-12-09T03:43:26.511Z,100777.38
2023-12-09T03:46:29.670Z,100757.12
2023-12-09T03:49:33.285Z,100774.66
2023-12-09T03:52:37.693Z,100775.72
2023-12-09T03:55:40.567Z,100768.00
2023-12-09T03:58:43.387Z,100779.91
2023-12-09T04:01:50.099Z,100772.25
2023-12-09T04:04:53.138Z,100781.62
2023-12-09T04:07:55.901Z,100777.19
2023-12-09T04:10:59.581Z,100777.19
2023-12-09T04:14:02.292Z,100766.03
2023-12-09T04:17:05.222Z,100762.56
2023-12-09T04:20:12.186Z,100760.06
2023-12-09T04:23:15.105Z,100766.03
2023-12-09T04:26:18.157Z,100764.09
2023-12-09T04:29:20.988Z,100757.34
2023-12-09T04:32:23.773Z,100770.91
2023-12-09T04:35:26.538Z,100768.87
2023-12-09T04:38:29.293Z,100757.81
2023-12-09T04:41:32.109Z,100761.09
2023-12-09T04:44:34.966Z,100767.91
2023-12-09T04:47:38.583Z,100767.78
2023-12-09T04:50:41.517Z,100759.41
2023-12-09T04:53:44.374Z,100761.00
2023-12-09T04:56:47.134Z,100767.78
2023-12-09T04:59:50.855Z,100764.44
2023-12-09T05:02:53.783Z,100767.91
2023-12-09T05:06:00.678Z,100780.03
2023-12-09T05:09:04.329Z,100780.78
2023-12-09T05:12:07.186Z,100783.16
2023-12-09T05:15:10.295Z,100782.31
2023-12-09T05:18:13.309Z,100762.13
2023-12-09T05:21:17.025Z,100764.72
2023-12-09T05:24:19.996Z,100773.91
2023-12-09T05:27:23.051Z,100780.72
2023-12-09T05:30:26.031Z,100773.00
2023-12-09T05:33:28.813Z,100773.06
2023-12-09T05:36:31.801Z,100770.62
2023-12-09T05:39:37.713Z,100778.22
2023-12-09T05:42:40.640Z,100779.97
2023-12-09T05:45:43.475Z,100784.28
2023-12-09T05:48:50.322Z,100775.00
2023-12-09T05:51:53.196Z,100791.16
2023-12-09T05:54:56.072Z,100789.44
2023-12-09T05:57:58.828Z,100784.47
2023-12-09T06:01:01.868Z,100791.94
2023-12-09T06:04:04.829Z,100793.59
2023-12-09T06:07:07.709Z,100788.31
2023-12-09T06:10:14.622Z,100788.31
2023-12-09T06:13:19.718Z,100798.44
2023-12-09T06:16:22.692Z,100798.44
2023-12-09T06:19:25.494Z,100799.97
2023-12-09T06:22:31.256Z,100808.94
2023-12-09T06:25:34.038Z,100798.41
2023-12-09T06:28:37.865Z,100790.59
2023-12-09T06:31:40.707Z,100788.66
2023-12-09T06:34:49.750Z,100785.16
2023-12-09T06:37:53.005Z,100788.34
2023-12-09T06:40:55.756Z,100792.31
2023-12-09T06:43:58.592Z,100775.94
2023-12-09T06:47:02.191Z,100785.00
2023-12-09T06:50:05.356Z,100787.34
2023-12-09T06:53:08.985Z,100785.53
2023-12-09T06:56:22.381Z,100776.81
2023-12-09T06:59:25.317Z,100794.34
2023-12-09T07:02:40.965Z,100783.72
2023-12-09T07:05:51.685Z,100795.25
2023-12-09T07:08:55.048Z,100780.38
2023-12-09T07:12:02.040Z,100780.09
2023-12-09T07:15:06.866Z,100789.81
2023-12-09T07:18:09.941Z,100789.56
2023-12-09T07:21:13.065Z,100785.16
2023-12-09T07:24:16.885Z,100796.44
2023-12-09T07:27:19.685Z,100787.62
2023-12-09T07:30:22.556Z,100783.78
2023-12-09T07:33:25.736Z,100793.53
2023-12-09T07:36:31.912Z,100799.06
2023-12-09T07:39:34.853Z,100793.47
2023-12-09T07:42:37.749Z,100792.31
2023-12-09T07:45:44.945Z,100792.81
2023-12-09T07:48:47.953Z,100806.78
2023-12-09T07:51:50.769Z,100799.28
2023-12-09T07:54:53.504Z,100787.53
2023-12-09T07:57:57.428Z,100804.69
2023-12-09T08:01:03.927Z,100805.72
2023-12-09T08:04:07.802Z,100796.50
2023-12-09T08:07:10.751Z,100795.31
2023-12-09T08:10:13.674Z,100792.97
2023-12-09T08:13:16.528Z,100792.28
2023-12-09T08:16:19.665Z,100794.34
2023-12-09T08:19:22.462Z,100792.13
2023-12-09T08:22:25.379Z,100803.44
2023-12-09T08:25:29.313Z,100791.03
2023-12-09T08:28:32.133Z,100798.78
2023-12-09T08:31:34.885Z,100794.78
2023-12-09T08:34:37.810Z,100793.97
2023-12-09T08:37:40.780Z,100787.47
2023-12-09T08:40:43.819Z,100792.75
2023-12-09T08:43:46.674Z,100792.84
2023-12-09T08:46:49.520Z,100789.69
2023-12-09T08:49:52.416Z,100792.34
2023-12-09T08:52:56.137Z,100802.50
2023-12-09T08:55:58.957Z,100800.09
2023-12-09T08:59:01.967Z,100794.50
2023-12-09T09:02:04.855Z,100798.00
2023-12-09T09:05:08.092Z,100791.28
2023-12-09T09:08:10.882Z,100793.00
2023-12-09T09:11:13.940Z,100790.09
2023-12-09T09:14:16.918Z,100787.25
2023-12-09T09:17:20.124Z,100784.72
2023-12-09T09:20:23.661Z,100791.06
2023-12-09T09:23:26.724Z,100790.31
2023-12-09T09:26:29.479Z,100795.41
2023-12-09T09:29:33.168Z,100786.72
2023-12-09T09:32:35.971Z,100794.81
2023-12-09T09:35:38.933Z,100781.09
2023-12-09T09:38:42.314Z,100776.84
2023-12-09T09:42:05.363Z,100779.63
2023-12-09T09:45:16.329Z,100787.31
2023-12-09T09:48:19.631Z,100770.06
2023-12-09T09:51:28.036Z,100775.25
2023-12-09T09:54:34.691Z,100767.06
2023-12-09T09:57:38.476Z,100763.53
2023-12-09T10:00:41.656Z,100757.59
2023-12-09T10:03:44.608Z,100755.03
2023-12-09T10:06:49.713Z,100755.66
2023-12-09T10:09:52.972Z,100752.97
2023-12-09T10:12:55.803Z,100756.59
2023-12-09T10:15:58.695Z,100738.94
2023-12-09T10:19:02.117Z,100735.41
2023-12-09T10:22:05.268Z,100743.38
2023-12-09T10:25:08.997Z,100745.87
2023-12-09T10:28:11.827Z,100734.16
2023-12-09T10:31:18.453Z,100733.41
2023-12-09T10:34:22.017Z,100731.31
2023-12-09T10:37:33.010Z,100732.16
2023-12-09T10:40:36.173Z,100737.03
2023-12-09T10:43:39.024Z,100737.44
2023-12-09T10:46:41.944Z,100730.59
2023-12-09T10:49:44.909Z,100736.81
2023-12-09T10:52:47.747Z,100733.41
2023-12-09T10:55:50.534Z,100726.84
2023-12-09T10:58:53.722Z,100730.06
2023-12-09T11:01:57.656Z,100724.34
2023-12-09T11:05:01.022Z,100722.00
2023-12-09T11:08:04.704Z,100725.00
2023-12-09T11:11:09.437Z,100715.72
2023-12-09T11:14:12.499Z,100715.41
2023-12-09T11:17:36.205Z,100707.94
2023-12-09T11:20:43.434Z,100700.78
2023-12-09T11:23:53.320Z,100705.34
2023-12-09T11:26:56.215Z,100702.91
2023-12-09T11:30:00.773Z,100694.94
2023-12-09T11:33:05.814Z,100695.34
2023-12-09T11:36:09.394Z,100694.44
2023-12-09T11:39:15.867Z,100692.16
2023-12-09T11:42:20.722Z,100691.94
2023-12-09T11:45:33.012Z,100689.16
2023-12-09T11:48:35.947Z,100683.81
2023-12-09T11:51:40.347Z,100677.81
2023-12-09T11:54:43.402Z,100681.13
2023-12-09T11:57:46.296Z,100674.78
2023-12-09T12:00:49.239Z,100678.53
2023-12-09T12:03:52.414Z,100666.34
2023-12-09T12:06:55.284Z,100668.53
2023-12-09T12:09:57.992Z,100662.31
2023-12-09T12:13:02.731Z,100651.59
2023-12-09T12:16:06.307Z,100647.66
2023-12-09T12:19:09.117Z,100654.00
2023-12-09T12:22:12.060Z,100660.44
2023-12-09T12:25:14.844Z,100654.72
2023-12-09T12:28:18.161Z,100645.47
2023-12-09T12:31:21.902Z,100647.22
2023-12-09T12:34:24.808Z,100643.69
2023-12-09T12:37:28.600Z,100658.66
2023-12-09T12:40:31.761Z,100653.47
2023-12-09T12:43:34.958Z,100647.44
2023-12-09T12:46:37.823Z,100648.69
2023-12-09T12:49:40.745Z,100643.09
2023-12-09T12:52:44.194Z,100636.00
2023-12-09T12:55:47.599Z,100633.41
2023-12-09T12:58:50.501Z,100634.97
2023-12-09T13:01:53.289Z,100631.66
2023-12-09T13:04:56.298Z,100615.53
2023-12-09T13:07:59.375Z,100619.47
2023-12-09T13:11:02.115Z,100623.84
2023-12-09T13:14:05.432Z,100628.00
2023-12-09T13:17:08.269Z,100618.03
2023-12-09T13:20:11.835Z,100617.09
2023-12-09T13:23:14.996Z,100619.91
2023-12-09T13:26:18.874Z,100619.28
2023-12-09T13:29:21.713Z,100614.94
2023-12-09T13:32:24.508Z,100616.59
2023-12-09T13:35:28.597Z,100604.03
2023-12-09T13:38:31.479Z,100602.38
2023-12-09T13:41:34.519Z,100600.19
2023-12-09T13:44:40.381Z,100600.91
2023-12-09T13:47:43.460Z,100602.47
2023-12-09T13:50:47.105Z,100582.41
2023-12-09T13:53:50.116Z,100579.59
2023-12-09T13:56:53.398Z,100589.06
2023-12-09T13:59:56.618Z,100588.41
2023-12-09T14:02:59.789Z,100577.41
2023-12-09T14:06:05.089Z,100574.03
2023-12-09T14:09:11.001Z,100560.31
2023-12-09T14:12:13.859Z,100565.00
2023-12-09T14:15:17.766Z,100557.09
2023-12-09T14:18:20.746Z,100559.59
2023-12-09T14:21:24.310Z,100551.53
2023-12-09T14:24:27.165Z,100545.72
2023-12-09T14:27:30.055Z,100543.56
2023-12-09T14:30:32.839Z,100547.59
2023-12-09T14:33:39.552Z,100533.38
2023-12-09T14:36:44.251Z,100530.19
2023-12-09T14:39:47.376Z,100531.16
2023-12-09T14:42:50.425Z,100535.81
2023-12-09T14:45:53.600Z,100538.59
2023-12-09T14:48:56.551Z,100525.22
2023-12-09T14:51:59.436Z,100515.37
2023-12-09T14:55:02.357Z,100515.78
2023-12-09T14:58:05.543Z,100519.53
2023-12-09T15:01:08.399Z,100520.69
2023-12-09T15:04:11.339Z,100513.44
2023-12-09T15:07:14.420Z,100520.38
2023-12-09T15:10:17.408Z,100519.13
2023-12-09T15:13:20.510Z,100520.97
2023-12-09T15:16:23.347Z,100521.81
2023-12-09T15:19:26.144Z,100519.41
2023-12-09T15:22:29.385Z,100513.94
2023-12-09T15:25:32.480Z,100516.53
2023-12-09T15:28:35.359Z,100509.59
2023-12-09T15:31:38.226Z,100502.81
2023-12-09T15:34:41.463Z,100505.41
2023-12-09T15:37:44.682Z,100508.94
2023-12-09T15:40:48.287Z,100511.44
2023-12-09T15:43:51.284Z,100514.97
2023-12-09T15:46:54.211Z,100510.81
2023-12-09T15:49:57.186Z,100502.09
2023-12-09T15:53:00.558Z,100505.72
2023-12-09T15:56:03.458Z,100498.97
2023-12-09T15:59:06.879Z,100497.09
2023-12-09T16:02:09.796Z,100503.75
2023-12-09T16:05:13.683Z,100499.59
2023-12-09T16:08:16.744Z,100491.81
2023-12-09T16:11:19.707Z,100483.63
2023-12-09T16:14:22.744Z,100495.25
2023-12-09T16:17:26.467Z,100496.06
2023-12-09T16:20:29.238Z,100490.06
2023-12-09T16:23:32.167Z,100477.28
2023-12-09T16:26:35.195Z,100473.03
2023-12-09T16:29:38.129Z,100464.31
2023-12-09T16:32:41.124Z,100467.84
2023-12-09T16:35:44.518Z,100469.50
2023-12-09T16:38:47.310Z,100477.06
2023-12-09T16:41:50.101Z,100453.31
2023-12-09T16:44:52.934Z,100467.84
2023-12-09T16:47:56.550Z,100467.63
2023-12-09T16:50:59.535Z,100475.41
2023-12-09T16:54:02.370Z,100458.31
2023-12-09T16:57:05.233Z,100456.75
2023-12-09T17:00:08.783Z,100474.47
2023-12-09T17:03:13.018Z,100456.44
2023-12-09T17:06:16.714Z,100457.47
2023-12-09T17:09:21.742Z,100448.13
2023-12-09T17:12:24.899Z,100447.09
2023-12-09T17:15:27.811Z,100444.72
2023-12-09T17:18:31.126Z,100435.28
2023-12-09T17:21:34.096Z,100424.16
2023-12-09T17:24:37.085Z,100421.78
2023-12-09T17:27:39.884Z,100418.38
2023-12-09T17:30:42.780Z,100431.13
2023-12-09T17:33:45.662Z,100440.66
2023-12-09T17:36:48.966Z,100437.97
2023-12-09T17:39:52.053Z,100416.37
2023-12-09T17:42:55.097Z,100412.12
2023-12-09T17:45:58.071Z,100425.00
2023-12-09T17:49:01.107Z,100429.16
2023-12-09T17:52:04.044Z,100427.37
2023-12-09T17:55:07.415Z,100402.38
2023-12-09T17:58:10.350Z,100402.59
2023-12-09T18:01:13.506Z,100406.84
2023-12-09T18:04:16.655Z,100401.44
2023-12-09T18:07:19.662Z,100380.69
2023-12-09T18:10:22.589Z,100373.00
2023-12-09T18:13:25.932Z,100373.72
2023-12-09T18:16:29.529Z,100365.00
2023-12-09T18:19:32.392Z,100341.78
2023-12-09T18:22:35.322Z,100340.94
2023-12-09T18:25:38.515Z,100338.47
2023-12-09T18:28:44.916Z,100345.19
2023-12-09T18:31:47.989Z,100338.47
2023-12-09T18:34:51.112Z,100337.53
2023-12-09T18:37:54.059Z,100334.81
2023-12-09T18:40:57.010Z,100326.81
2023-12-09T18:44:00.174Z,100316.44
2023-12-09T18:47:03.272Z,100312.31
2023-12-09T18:50:07.996Z,100316.22
2023-12-09T18:53:10.930Z,100304.09
2023-12-09T18:56:13.743Z,100290.41
2023-12-09T18:59:17.852Z,100295.38
2023-12-09T19:02:21.443Z,100293.59
2023-12-09T19:05:24.294Z,100281.28
2023-12-09T19:08:27.206Z,100259.75
2023-12-09T19:11:30.038Z,100240.16
2023-12-09T19:14:32.826Z,100256.16
2023-12-09T19:17:35.953Z,100261.34
2023-12-09T19:20:38.867Z,100246.72
2023-12-09T19:23:41.785Z,100230.50
2023-12-09T19:26:45.131Z,100231.16
2023-12-09T19:29:49.833Z,100231.16
2023-12-09T19:32:54.972Z,100219.53
2023-12-09T19:35:58.081Z,100217.97
2023-12-09T19:39:01.572Z,100208.50
2023-12-09T19:42:04.831Z,100216.50
2023-12-09T19:45:08.429Z,100209.87
2023-12-09T19:48:11.512Z,100200.88
2023-12-09T19:51:14.569Z,100210.44
2023-12-09T19:54:17.515Z,100202.66
2023-12-09T19:57:20.725Z,100193.31
2023-12-09T20:00:23.972Z,100172.09
2023-12-09T20:03:27.088Z,100166.31
2023-12-09T20:06:30.817Z,100154.91
2023-12-09T20:09:34.198Z,100161.97
2023-12-09T20:12:37.010Z,100151.53
2023-12-09T20:15:39.889Z,100151.75
2023-12-09T20:18:42.854Z,100143.59
2023-12-09T20:21:46.560Z,100141.00
2023-12-09T20:24:49.601Z,100142.75
2023-12-09T20:27:53.448Z,100147.72
2023-12-09T20:30:58.609Z,100141.50
2023-12-09T20:34:01.715Z,100123.69
2023-12-09T20:37:04.874Z,100116.97
2023-12-09T20:40:08.291Z,100116.47
2023-12-09T20:43:12.097Z,100121.69
2023-12-09T20:46:15.028Z,100113.81
2023-12-09T20:49:18.938Z,100107.69
2023-12-09T20:52:21.844Z,100105.59
2023-12-09T20:55:24.879Z,100104.78
2023-12-09T20:58:27.637Z,100104.66
2023-12-09T21:01:31.184Z,100108.31
2023-12-09T21:04:34.002Z,100096.12
2023-12-09T21:07:37.202Z,100090.78
2023-12-09T21:10:40.064Z,100094.09
2023-12-09T21:13:42.910Z,100093.09
2023-12-09T21:16:45.716Z,100085.03
2023-12-09T21:19:48.575Z,100082.97
2023-12-09T21:22:51.942Z,100072.44
2023-12-09T21:25:54.929Z,100063.44
2023-12-09T21:28:57.671Z,100061.47
2023-12-09T21:32:00.399Z,100069.12
2023-12-09T21:35:03.250Z,100056.84
2023-12-09T21:38:06.062Z,100060.47
2023-12-09T21:41:09.368Z,100066.78
2023-12-09T21:44:12.096Z,100070.59
2023-12-09T21:47:14.816Z,100064.69
2023-12-09T21:50:17.606Z,100061.19
2023-12-09T21:53:20.333Z,100050.94
2023-12-09T21:56:27.014Z,100045.75
2023-12-09T21:59:29.722Z,100042.31
2023-12-09T22:02:33.025Z,100030.22
2023-12-09T22:05:35.841Z,100024.00
2023-12-09T22:08:38.804Z,100005.56
2023-12-09T22:11:41.611Z,99988.38
2023-12-09T22:14:44.436Z,99971.00
2023-12-09T22:17:47.251Z,99966.00
2023-12-09T22:20:49.981Z,99967.53
2023-12-09T22:23:54.283Z,99977.66
2023-12-09T22:26:57.578Z,99969.19
2023-12-09T22:30:00.411Z,99962.53
2023-12-09T22:33:04.369Z,99971.59
2023-12-09T22:36:09.473Z,99965.28
2023-12-09T22:39:13.808Z,99958.09
2023-12-09T22:42:17.547Z,99946.09
2023-12-09T22:45:20.583Z,99939.63
2023-12-09T22:48:26.675Z,99915.03
2023-12-09T22:51:30.595Z,99910.69
2023-12-09T22:54:33.407Z,99908.34
2023-12-09T22:57:36.321Z,99920.88
2023-12-09T23:00:39.179Z,99924.59
2023-12-09T23:03:41.952Z,99923.88
2023-12-09T23:06:44.858Z,99912.25
2023-12-09T23:09:47.643Z,99907.19
2023-12-09T23:12:50.592Z,99909.78
2023-12-09T23:15:54.541Z,99913.28
2023-12-09T23:18:57.555Z,99914.03
2023-12-09T23:22:00.293Z,99917.69
2023-12-09T23:25:03.338Z,99900.63
2023-12-09T23:28:06.143Z,99902.97
2023-12-09T23:31:08.944Z,99882.50
2023-12-09T23:34:11.809Z,99886.03
2023-12-09T23:37:14.624Z,99873.31
2023-12-09T23:40:17.377Z,99836.53
2023-12-09T23:43:20.171Z,99833.75
2023-12-09T23:46:24.576Z,99835.59
2023-12-09T23:49:27.336Z,99818.19
2023-12-09T23:52:30.514Z,99829.69
2023-12-09T23:55:33.428Z,99837.97
2023-12-09T23:58:37.004Z,99845.03
